Time;durP1;ratioP1;P1;durP2;ratioP2;P2;SDS_P1;SDS_P2;PMS_P1;PMS_P2;Temp;Humidity;BMP_temperature;BMP_pressure;BME280_temperature;BME280_humidity;BME280_pressure;Samples;Min_cycle;Max_cycle;Signal;HPM_P1;HPM_P2
2022/01/26 00:06:46;;;;;;;10.57;6.50;;;;;;;-3.39;88.36;101125.09;5065189;28;20248;-75
2022/01/26 00:09:13;;;;;;;7.93;4.73;;;;;;;-3.39;87.34;101122.56;5051462;28;20223;-75
2022/01/26 00:11:40;;;;;;;13.83;7.07;;;;;;;-3.43;87.06;101124.69;5058588;28;20195;-76
2022/01/26 00:14:12;;;;;;;9.87;5.97;;;;;;;-3.38;87.62;101120.88;5051520;28;20191;-74
2022/01/26 00:16:40;;;;;;;13.17;7.73;;;;;;;-3.50;86.63;101126.66;5051563;28;20210;-74
2022/01/26 00:19:10;;;;;;;4.70;3.67;;;;;;;-3.51;87.56;101114.78;5051156;28;20666;-74
2022/01/26 00:21:40;;;;;;;11.27;6.93;;;;;;;-3.35;87.33;101126.25;5051621;28;20195;-74
2022/01/26 00:24:25;;;;;;;13.13;6.43;;;;;;;-3.45;85.84;101116.03;5051392;28;20196;-76
2022/01/26 00:27:09;;;;;;;13.47;7.30;;;;;;;-3.37;86.71;101118.50;5055831;28;20666;-76
2022/01/26 00:29:40;;;;;;;14.97;7.33;;;;;;;-3.38;86.13;101124.31;5050770;28;20195;-74
2022/01/26 00:40:32;;;;;;;23.20;12.87;;;;;;;-3.30;84.68;101122.44;5071070;28;20198;-77
2022/01/26 00:43:04;;;;;;;6.50;5.80;;;;;;;-3.25;84.31;101123.72;5063301;28;20218;-75
2022/01/26 00:45:36;;;;;;;10.20;6.30;;;;;;;-3.21;84.08;101129.16;5070994;28;20780;-76
2022/01/26 00:48:08;;;;;;;6.13;4.57;;;;;;;-3.22;83.35;101126.53;5050971;28;20697;-74
2022/01/26 00:50:36;;;;;;;12.63;7.53;;;;;;;-3.20;83.00;101122.47;5050938;28;20278;-74
2022/01/26 00:53:04;;;;;;;16.50;10.57;;;;;;;-3.15;82.12;101123.75;5049994;28;20689;-74
2022/01/26 00:55:31;;;;;;;34.07;17.23;;;;;;;-3.20;81.51;101119.94;5050685;28;20191;-74
2022/01/26 00:57:58;;;;;;;86.13;37.07;;;;;;;-3.17;81.37;101125.25;5050819;28;20199;-75
2022/01/26 01:00:26;;;;;;;46.00;19.50;;;;;;;-3.19;80.89;101107.38;5050127;28;20636;-76
2022/01/26 01:02:57;;;;;;;85.77;34.73;;;;;;;-3.13;80.29;101120.59;5068334;28;20223;-74
2022/01/26 01:05:28;;;;;;;38.53;19.60;;;;;;;-3.41;79.81;101077.53;5070736;28;20203;-74
2022/01/26 01:08:01;;;;;;;35.90;18.43;;;;;;;-3.59;80.00;101041.38;5061614;28;20327;-74
2022/01/26 01:10:28;;;;;;;32.83;17.17;;;;;;;-3.56;79.36;101042.50;5054262;28;20258;-75
2022/01/26 01:12:57;;;;;;;16.47;7.73;;;;;;;-3.05;78.93;101106.03;5056058;28;20195;-74
2022/01/26 01:15:25;;;;;;;45.17;21.47;;;;;;;-2.98;78.36;101103.25;5074495;28;20285;-74
2022/01/26 01:17:57;;;;;;;26.20;14.73;;;;;;;-3.11;77.58;101095.38;5072445;28;20191;-74
2022/01/26 01:20:43;;;;;;;24.07;12.53;;;;;;;-2.92;77.38;101103.75;5058356;28;20265;-74
2022/01/26 01:23:31;;;;;;;5.50;5.00;;;;;;;-2.85;76.68;101095.03;5056620;28;20234;-75
2022/01/26 01:26:21;;;;;;;13.90;7.40;;;;;;;-2.92;76.49;101088.53;5067215;28;20194;-74
2022/01/26 01:29:07;;;;;;;17.77;8.43;;;;;;;-3.04;75.95;101064.69;5055115;28;20679;-74
2022/01/26 01:31:43;;;;;;;15.03;7.60;;;;;;;-2.92;76.04;101083.44;5053280;28;20191;-74
2022/01/26 01:34:11;;;;;;;6.80;4.73;;;;;;;-2.90;75.75;101081.94;5065637;28;20194;-75
2022/01/26 01:36:41;;;;;;;11.97;6.73;;;;;;;-2.85;75.25;101080.66;5073625;28;20206;-74
2022/01/26 01:39:09;;;;;;;9.60;7.10;;;;;;;-2.79;74.98;101085.38;5074155;28;20655;-74
2022/01/26 01:41:37;;;;;;;18.33;9.20;;;;;;;-2.84;74.97;101077.38;5073906;28;20191;-75
2022/01/26 01:44:05;;;;;;;8.10;4.60;;;;;;;-2.80;74.91;101078.53;5070294;28;20242;-74
2022/01/26 01:46:32;;;;;;;18.57;5.90;;;;;;;-3.06;75.28;101036.66;5067888;28;20238;-75
2022/01/26 01:48:59;;;;;;;4.60;3.67;;;;;;;-2.77;75.02;101061.00;5054116;28;20192;-74
2022/01/26 01:51:30;;;;;;;12.73;6.00;;;;;;;-2.71;75.33;101074.22;5054747;28;20198;-74
2022/01/26 01:53:59;;;;;;;12.27;7.00;;;;;;;-2.79;74.75;101055.81;5054881;28;20192;-74
2022/01/26 01:56:27;;;;;;;7.20;4.40;;;;;;;-2.82;75.51;101060.66;5056765;28;20194;-75
2022/01/26 01:58:54;;;;;;;15.07;7.53;;;;;;;-3.15;75.13;101005.47;5069723;28;20206;-74
2022/01/26 02:01:21;;;;;;;8.33;4.50;;;;;;;-2.82;75.14;101053.03;5063451;28;20700;-74
2022/01/26 02:03:48;;;;;;;12.70;7.40;;;;;;;-2.86;74.61;101048.47;5073505;28;20284;-74
2022/01/26 02:06:16;;;;;;;4.57;4.00;;;;;;;-2.76;75.22;101047.56;5055723;28;20633;-74
2022/01/26 02:08:44;;;;;;;6.67;5.60;;;;;;;-2.77;75.13;101039.06;5057024;28;20222;-76
2022/01/26 02:11:13;;;;;;;15.67;7.93;;;;;;;-2.98;75.35;101019.53;5073413;28;20609;-75
2022/01/26 02:13:48;;;;;;;5.07;4.33;;;;;;;-2.76;75.03;101045.94;5073016;28;20594;-74
2022/01/26 02:16:22;;;;;;;8.03;5.53;;;;;;;-2.79;74.74;101045.69;5054971;28;20253;-76
2022/01/26 02:19:12;;;;;;;11.93;6.43;;;;;;;-2.88;74.63;101013.56;5073015;28;20226;-75
2022/01/26 02:22:02;;;;;;;9.90;6.53;;;;;;;-2.85;74.77;101029.94;5063509;28;20680;-75
2022/01/26 02:49:38;;;;;;;7.90;4.03;;;;;;;-2.80;72.23;101008.38;5070756;28;20683;-75
2022/01/26 02:52:18;;;;;;;7.20;4.67;;;;;;;-2.65;71.20;101012.16;5072586;28;20270;-74
2022/01/26 02:54:57;;;;;;;8.97;4.80;;;;;;;-2.54;70.86;101023.19;5066612;28;20187;-75
2022/01/26 02:57:41;;;;;;;12.33;4.57;;;;;;;-2.48;70.19;101013.53;5072537;28;20372;-75
2022/01/26 03:00:19;;;;;;;7.53;5.30;;;;;;;-2.51;69.68;101016.72;5071631;28;20210;-75
2022/01/26 03:02:51;;;;;;;6.23;4.57;;;;;;;-2.44;69.56;101023.16;5071691;28;20215;-74
2022/01/26 03:05:21;;;;;;;5.80;4.77;;;;;;;-2.58;69.93;100975.47;5061378;28;20219;-74
2022/01/26 03:07:53;;;;;;;6.57;4.63;;;;;;;-2.32;69.25;101025.81;5066907;28;20199;-74
2022/01/26 03:10:29;;;;;;;5.97;4.50;;;;;;;-2.34;69.09;101015.53;5053337;28;20220;-75
2022/01/26 03:13:00;;;;;;;9.10;4.93;;;;;;;-2.34;69.12;101015.53;5053415;28;20209;-75
2022/01/26 03:15:32;;;;;;;8.07;5.33;;;;;;;-2.44;68.92;101027.34;5062873;28;20205;-74
2022/01/26 03:18:35;;;;;;;5.80;4.80;;;;;;;-2.35;69.24;101028.09;5071758;28;20205;-74
2022/01/26 03:21:05;;;;;;;8.57;5.20;;;;;;;-2.34;68.96;101022.25;5069992;28;20190;-74
2022/01/26 03:29:27;;;;;;;6.00;4.37;;;;;;;-2.30;68.64;101030.25;5052701;28;20206;-75
2022/01/26 03:34:56;;;;;;;23.80;9.27;;;;;;;-2.33;69.41;101030.00;5063378;27;2410447;-74
2022/01/26 03:37:29;;;;;;;62.90;17.43;;;;;;;-2.32;69.04;101021.59;5129464;28;20189;-74
2022/01/26 03:39:56;;;;;;;21.17;10.37;;;;;;;-2.40;69.12;100983.69;5129294;28;20208;-73
2022/01/26 03:42:23;;;;;;;41.00;8.97;;;;;;;-2.16;69.21;101018.66;5130021;28;20580;-75
2022/01/26 03:44:49;;;;;;;35.43;12.73;;;;;;;-2.12;68.57;101021.56;5128909;28;20248;-74
2022/01/26 03:47:16;;;;;;;25.80;9.50;;;;;;;-2.09;68.61;101026.00;5129488;28;20185;-74
2022/01/26 03:49:43;;;;;;;15.40;7.70;;;;;;;-2.14;68.38;101012.06;5129925;28;20200;-74
2022/01/26 03:52:11;;;;;;;27.03;11.53;;;;;;;-2.03;68.43;101016.31;5128604;28;20200;-74
2022/01/26 03:54:39;;;;;;;17.57;8.63;;;;;;;-2.10;68.22;101016.59;5129288;28;20224;-74
2022/01/26 03:57:06;;;;;;;8.60;6.17;;;;;;;-2.10;68.13;101014.03;5128650;28;20188;-74
2022/01/26 03:59:33;;;;;;;8.07;5.20;;;;;;;-2.11;67.94;101017.38;5126615;28;20216;-73
2022/01/26 04:02:00;;;;;;;10.03;6.03;;;;;;;-2.09;68.00;101015.84;5108732;28;20691;-74
2022/01/26 04:04:30;;;;;;;10.80;6.33;;;;;;;-2.16;68.19;100995.78;5108654;28;20597;-73
2022/01/26 04:06:59;;;;;;;10.93;6.40;;;;;;;-2.12;68.82;101006.31;5120042;28;20189;-73
2022/01/26 04:09:27;;;;;;;16.73;8.20;;;;;;;-2.13;68.36;100996.91;5128980;28;20683;-73
2022/01/26 04:11:54;;;;;;;15.70;5.50;;;;;;;-2.09;68.88;101000.59;5129527;28;20205;-74
2022/01/26 04:14:26;;;;;;;8.67;4.80;;;;;;;-2.20;68.72;100986.16;5119837;28;20221;-74
2022/01/26 04:16:53;;;;;;;16.37;7.10;;;;;;;-2.05;68.57;101011.13;5129580;28;20197;-73
2022/01/26 04:19:20;;;;;;;15.97;8.23;;;;;;;-2.00;68.48;101011.50;5128466;28;20200;-74
2022/01/26 04:21:58;;;;;;;17.33;8.27;;;;;;;-1.89;68.23;101015.75;5128862;28;20259;-73
2022/01/26 04:24:29;;;;;;;20.03;7.83;;;;;;;-1.94;68.55;101006.88;5104011;28;20205;-74
2022/01/26 04:27:01;;;;;;;23.93;11.30;;;;;;;-1.91;67.92;101002.03;5098188;28;20201;-74
2022/01/26 04:29:31;;;;;;;13.03;6.97;;;;;;;-1.91;68.75;101012.22;5110533;28;20194;-73
2022/01/26 04:31:59;;;;;;;22.13;8.67;;;;;;;-2.00;68.99;101004.72;5118084;28;20258;-74
2022/01/26 04:34:26;;;;;;;17.83;7.23;;;;;;;-1.92;69.00;101012.06;5108749;28;20225;-74
2022/01/26 04:36:58;;;;;;;26.30;9.00;;;;;;;-2.10;68.84;100984.44;5099521;28;20793;-74
2022/01/26 04:39:29;;;;;;;29.93;11.67;;;;;;;-2.10;69.11;100996.25;5105736;28;20401;-74
2022/01/26 04:42:01;;;;;;;30.47;11.83;;;;;;;-1.89;69.42;101010.66;5106816;28;20190;-73
2022/01/26 04:44:33;;;;;;;23.43;9.77;;;;;;;-1.96;68.93;100998.25;5094535;28;20198;-74
2022/01/26 04:47:00;;;;;;;33.03;12.60;;;;;;;-1.93;69.12;101006.13;5092699;28;20190;-73
2022/01/26 04:49:27;;;;;;;20.30;9.27;;;;;;;-1.93;69.19;101008.66;5094184;28;20191;-74
2022/01/26 04:51:54;;;;;;;22.73;9.00;;;;;;;-1.87;69.46;101008.25;5097505;28;20636;-74
2022/01/26 04:54:21;;;;;;;14.63;7.13;;;;;;;-1.85;68.98;100989.81;5081200;28;20227;-73
2022/01/26 04:56:47;;;;;;;18.00;8.97;;;;;;;-1.70;69.45;101005.38;5111811;28;20186;-74
2022/01/26 04:59:15;;;;;;;16.00;8.50;;;;;;;-1.78;69.64;101004.75;5112288;28;20190;-73
2022/01/26 05:01:42;;;;;;;12.07;6.97;;;;;;;-1.63;69.24;101013.59;5114009;28;20281;-76
2022/01/26 05:04:09;;;;;;;12.77;6.57;;;;;;;-1.70;69.06;101001.16;5098473;28;20201;-74
2022/01/26 05:06:36;;;;;;;19.90;11.38;;;;;;;-1.47;69.68;101002.06;5105148;28;20442;-76
2022/01/26 05:09:03;;;;;;;10.73;7.17;;;;;;;-1.41;68.63;100997.44;5098365;28;20440;-74
2022/01/26 05:11:35;;;;;;;8.10;5.17;;;;;;;-1.38;68.04;100992.59;5094169;28;20664;-75
2022/01/26 05:14:02;;;;;;;12.30;7.33;;;;;;;-1.46;67.89;100993.69;5105943;28;20225;-76
2022/01/26 05:16:30;;;;;;;10.50;6.20;;;;;;;-1.43;67.88;100994.81;5113261;28;20201;-76
2022/01/26 05:18:57;;;;;;;15.23;7.70;;;;;;;-1.56;67.92;100967.53;5108173;28;20195;-77
2022/01/26 05:21:26;;;;;;;11.80;7.00;;;;;;;-1.51;67.81;100984.03;5094913;28;20272;-76
2022/01/26 05:23:53;;;;;;;15.20;7.90;;;;;;;-1.49;71.41;100989.22;5106219;28;20437;-75
2022/01/26 05:26:21;;;;;;;12.13;7.33;;;;;;;-1.80;69.02;100940.25;5102760;28;20556;-76
2022/01/26 05:28:48;;;;;;;11.57;5.37;;;;;;;-1.47;69.44;100986.81;5094884;28;20601;-76
2022/01/26 05:31:15;;;;;;;27.20;12.07;;;;;;;-0.89;87.73;100987.88;5112023;28;20085;-75
2022/01/26 05:33:44;;;;;;;24.17;10.87;;;;;;;-1.12;72.12;100992.91;5103391;28;20243;-75
2022/01/26 05:36:10;;;;;;;19.40;8.60;;;;;;;-1.19;70.14;100986.47;5095295;28;20191;-79
2022/01/26 05:38:38;;;;;;;35.43;12.90;;;;;;;-1.44;70.35;100971.78;5108637;28;20216;-76
2022/01/26 05:41:05;;;;;;;55.87;17.90;;;;;;;-1.38;70.95;100993.47;5095895;28;20586;-76
2022/01/26 05:43:33;;;;;;;25.53;10.17;;;;;;;-1.38;70.32;101002.75;5106724;28;20197;-77
2022/01/26 05:46:04;;;;;;;12.60;5.80;;;;;;;-1.51;70.02;101001.84;5104623;28;20194;-77
2022/01/26 05:48:31;;;;;;;29.97;11.53;;;;;;;-1.46;70.80;101008.94;5093325;28;20228;-77
2022/01/26 05:51:06;;;;;;;22.97;10.20;;;;;;;-1.65;71.45;100954.13;5093979;28;20227;-78
2022/01/26 05:53:33;;;;;;;26.90;9.77;;;;;;;-1.43;70.09;101001.53;5093883;28;20244;-78
2022/01/26 05:56:00;;;;;;;22.90;9.13;;;;;;;-1.86;70.71;100914.34;5093603;28;20198;-78
2022/01/26 05:58:27;;;;;;;5.13;3.87;;;;;;;-1.49;71.52;100981.59;5094151;28;20210;-77
2022/01/26 06:00:54;;;;;;;25.53;9.87;;;;;;;-1.75;71.02;100961.78;5105423;28;20226;-78
2022/01/26 06:03:21;;;;;;;34.03;13.40;;;;;;;-1.39;71.42;101011.19;5095299;28;20190;-77
2022/01/26 06:05:48;;;;;;;26.97;10.03;;;;;;;-1.42;72.10;101008.38;5104581;28;20700;-77
2022/01/26 06:08:16;;;;;;;35.73;11.53;;;;;;;-1.45;72.43;100988.69;5101410;28;20197;-77
2022/01/26 06:10:43;;;;;;;22.47;9.60;;;;;;;-1.36;72.11;101011.41;5101803;28;20197;-77
2022/01/26 06:13:10;;;;;;;21.33;10.37;;;;;;;-1.56;72.92;100965.00;5104881;28;20197;-77
2022/01/26 06:15:36;;;;;;;23.00;11.13;;;;;;;-1.28;72.58;101010.31;5100061;28;20221;-77
2022/01/26 06:18:03;;;;;;;31.43;14.47;;;;;;;-1.17;71.94;101014.56;5108041;28;20637;-77
2022/01/26 06:20:30;;;;;;;12.70;7.30;;;;;;;-1.20;71.87;101019.44;5092876;28;20198;-77
2022/01/26 06:22:57;;;;;;;13.87;7.60;;;;;;;-1.22;71.87;100987.91;5093315;28;20567;-76
2022/01/26 06:25:27;;;;;;;14.03;8.87;;;;;;;-1.23;70.97;101009.03;5100772;28;20193;-76
2022/01/26 06:27:55;;;;;;;17.07;9.63;;;;;;;-1.29;72.19;100993.31;5109680;28;20190;-80
2022/01/26 06:30:23;;;;;;;23.30;11.63;;;;;;;-1.28;71.90;100979.78;5071777;28;20271;-75
2022/01/26 06:32:51;;;;;;;6.97;5.43;;;;;;;-1.02;71.54;101005.56;5072130;28;20191;-74
2022/01/26 06:35:18;;;;;;;27.40;10.83;;;;;;;-1.11;70.89;101009.97;5091659;28;20614;-73
2022/01/26 06:37:45;;;;;;;39.83;18.20;;;;;;;-1.00;71.91;101009.97;5078735;28;20629;-77
2022/01/26 06:40:13;;;;;;;26.17;12.90;;;;;;;-1.15;71.32;101008.84;5113756;28;20197;-78
2022/01/26 06:42:51;;;;;;;28.20;11.10;;;;;;;-1.02;72.79;101011.53;5114271;28;20196;-78
2022/01/26 06:45:22;;;;;;;34.37;14.37;;;;;;;-0.94;72.12;101012.13;5116557;28;20264;-79
2022/01/26 06:48:01;;;;;;;26.07;12.30;;;;;;;-0.81;72.15;101001.19;5099782;28;20205;-78
2022/01/26 06:50:29;;;;;;;18.27;9.03;;;;;;;-0.96;71.34;100984.78;5102714;28;20276;-76
2022/01/26 06:52:55;;;;;;;17.60;8.67;;;;;;;-0.85;71.58;100994.97;5115982;28;20194;-75
2022/01/26 06:55:22;;;;;;;19.37;9.03;;;;;;;-0.82;71.49;100992.66;5115743;28;20232;-76
2022/01/26 06:57:50;;;;;;;25.80;10.97;;;;;;;-0.84;70.81;100989.13;5117894;28;20197;-76
2022/01/26 07:00:17;;;;;;;22.77;9.20;;;;;;;-0.80;71.86;100993.66;5115168;28;20303;-79
2022/01/26 07:02:44;;;;;;;24.00;11.30;;;;;;;-0.82;71.95;100984.16;5114120;28;20190;-78
2022/01/26 07:05:14;;;;;;;22.93;10.63;;;;;;;-0.83;71.43;100993.44;5112466;28;20185;-75
2022/01/26 07:07:42;;;;;;;21.30;11.50;;;;;;;-0.90;71.87;100968.31;5114327;28;20200;-79
2022/01/26 07:10:10;;;;;;;21.17;10.37;;;;;;;-0.65;72.04;100994.81;5115223;28;20196;-76
2022/01/26 07:12:37;;;;;;;20.53;9.83;;;;;;;-0.61;71.11;100984.03;5113577;28;20648;-75
2022/01/26 07:21:22;;;;;;;36.20;16.97;;;;;;;-0.47;71.03;100979.09;5113672;28;20189;-76
2022/01/26 07:23:45;;;;;;;39.57;17.80;;;;;;;-0.31;70.52;100987.06;5113821;28;20217;-77
2022/01/26 07:26:11;;;;;;;67.17;28.83;;;;;;;-0.44;70.98;100964.91;5113863;28;20189;-77
2022/01/26 07:28:39;;;;;;;33.30;14.57;;;;;;;-0.29;70.90;100990.63;5113358;28;20196;-77
2022/01/26 07:31:08;;;;;;;39.50;16.87;;;;;;;-0.64;71.13;100922.72;5111959;28;20198;-78
2022/01/26 07:33:36;;;;;;;106.77;37.77;;;;;;;-0.18;71.96;100974.44;5116941;28;20217;-78
2022/01/26 07:36:04;;;;;;;21.43;9.50;;;;;;;-0.21;71.87;100979.28;5116579;28;20201;-78
2022/01/26 07:38:31;;;;;;;37.87;18.03;;;;;;;-0.52;72.83;100945.63;5116249;28;20204;-77
2022/01/26 07:40:58;;;;;;;31.57;13.57;;;;;;;-0.26;72.19;100975.53;5112642;28;20224;-78
2022/01/26 07:43:25;;;;;;;35.47;15.30;;;;;;;-0.31;73.22;100979.41;5112340;28;20200;-78
2022/01/26 07:45:52;;;;;;;24.00;10.10;;;;;;;-0.23;73.02;100988.50;5112654;28;20268;-77
2022/01/26 07:48:20;;;;;;;36.43;14.23;;;;;;;-1.50;72.59;100779.84;5113071;28;20613;-77
2022/01/26 07:50:50;;;;;;;30.07;14.13;;;;;;;-0.50;73.74;100951.75;5113791;28;20201;-79
2022/01/26 07:53:17;;;;;;;47.43;16.27;;;;;;;-0.12;84.67;100968.13;5113466;28;20193;-77
2022/01/26 07:55:44;;;;;;;7.30;5.53;;;;;;;-0.55;79.19;100925.94;5113935;28;20224;-77
2022/01/26 07:58:12;;;;;;;20.57;10.57;;;;;;;-0.09;76.02;101000.56;5112226;28;20193;-78
2022/01/26 08:00:39;;;;;;;17.20;8.37;;;;;;;-0.21;76.41;101005.66;5112750;28;20312;-77
2022/01/26 08:03:06;;;;;;;18.43;8.57;;;;;;;-0.18;76.43;101005.88;5115002;28;20193;-78
2022/01/26 08:05:34;;;;;;;13.17;7.23;;;;;;;-0.22;77.10;101016.66;5118074;28;20204;-77
2022/01/26 08:08:01;;;;;;;17.23;7.70;;;;;;;-0.14;77.32;101001.88;5117099;28;20579;-77
2022/01/26 08:10:27;;;;;;;21.97;11.80;;;;;;;-0.52;78.11;100964.34;5118597;28;20202;-77
2022/01/26 08:12:54;;;;;;;23.13;10.20;;;;;;;-0.11;79.15;100972.41;5114658;28;20711;-77
2022/01/26 08:15:21;;;;;;;20.60;10.97;;;;;;;-0.06;78.69;100968.53;5115663;28;20664;-77
2022/01/26 08:17:48;;;;;;;26.83;11.83;;;;;;;0.04;78.54;100977.72;5114899;28;20216;-76
2022/01/26 08:20:15;;;;;;;18.83;8.63;;;;;;;-0.08;79.99;100959.91;5116447;28;20656;-76
2022/01/26 08:22:43;;;;;;;61.07;18.73;;;;;;;0.03;79.19;100978.50;5118855;28;20197;-75
2022/01/26 08:25:11;;;;;;;22.33;12.83;;;;;;;0.02;79.13;100976.72;5118815;28;20193;-77
2022/01/26 08:27:42;;;;;;;20.23;11.83;;;;;;;0.05;78.31;100974.38;5120101;28;20193;-76
2022/01/26 08:30:16;;;;;;;44.53;19.80;;;;;;;0.32;77.88;100970.34;5117342;28;20185;-78
2022/01/26 08:32:43;;;;;;;28.53;13.77;;;;;;;0.37;76.88;100969.88;5119115;28;20201;-77
2022/01/26 08:35:10;;;;;;;30.20;14.87;;;;;;;0.50;75.93;100974.16;5118915;28;20317;-76
2022/01/26 08:37:37;;;;;;;23.63;11.40;;;;;;;0.46;76.18;100939.88;5117220;28;20270;-75
2022/01/26 08:40:07;;;;;;;39.57;15.97;;;;;;;0.82;76.68;100978.91;5119396;28;20189;-76
2022/01/26 08:42:34;;;;;;;57.53;19.20;;;;;;;1.22;74.95;100985.00;5118686;28;20201;-76
2022/01/26 08:45:01;;;;;;;21.33;11.17;;;;;;;1.36;73.88;100985.13;5118157;28;20194;-74
2022/01/26 08:47:28;;;;;;;23.53;10.00;;;;;;;1.16;71.99;100936.09;5115649;28;20205;-75
2022/01/26 08:49:55;;;;;;;16.97;9.50;;;;;;;1.53;70.88;100993.03;5115230;28;20190;-76
2022/01/26 08:52:21;;;;;;;23.60;11.63;;;;;;;0.90;70.32;100930.13;5115267;28;20193;-75
2022/01/26 08:54:48;;;;;;;27.67;11.90;;;;;;;1.24;70.57;100989.44;5114278;28;20221;-75
2022/01/26 08:57:17;;;;;;;44.53;15.50;;;;;;;1.10;70.10;100946.78;5115284;28;20204;-75
2022/01/26 08:59:44;;;;;;;22.07;10.03;;;;;;;1.44;69.93;100981.41;5114342;28;20209;-75
2022/01/26 09:02:11;;;;;;;40.47;14.37;;;;;;;1.37;69.50;100978.34;5114538;28;20194;-75
2022/01/26 09:04:38;;;;;;;103.50;29.30;;;;;;;1.47;70.21;100983.28;5115121;28;20204;-75
2022/01/26 09:07:05;;;;;;;72.97;22.83;;;;;;;1.62;69.39;100968.94;5114931;28;20192;-75
2022/01/26 09:09:42;;;;;;;19.40;9.93;;;;;;;1.47;70.82;100958.63;5115022;28;20198;-75
2022/01/26 09:12:10;;;;;;;44.37;15.20;;;;;;;1.72;70.95;100978.06;5114837;28;20219;-75
2022/01/26 09:14:38;;;;;;;23.87;11.93;;;;;;;1.65;70.79;100975.91;5114537;28;20262;-75
2022/01/26 09:17:07;;;;;;;15.27;8.40;;;;;;;1.63;70.76;100990.28;5114513;28;20190;-75
2022/01/26 09:19:35;;;;;;;29.70;12.77;;;;;;;1.84;70.72;100982.31;5114620;28;20186;-73
2022/01/26 09:22:04;;;;;;;23.40;12.40;;;;;;;1.96;70.23;100988.19;5114453;28;20596;-74
2022/01/26 09:24:32;;;;;;;19.07;9.87;;;;;;;1.94;70.09;100969.31;5089908;28;20629;-74
2022/01/26 09:27:00;;;;;;;17.87;9.83;;;;;;;1.90;70.93;100979.25;5073577;28;20553;-75
2022/01/26 09:29:27;;;;;;;16.43;8.43;;;;;;;2.02;69.02;100962.13;5073844;28;20677;-75
2022/01/26 09:31:55;;;;;;;14.23;6.97;;;;;;;2.05;68.56;100987.91;5072924;28;20191;-75
2022/01/26 09:34:25;;;;;;;17.90;9.30;;;;;;;2.00;69.33;100984.16;5073714;28;20230;-76
2022/01/26 09:36:52;;;;;;;23.80;9.73;;;;;;;2.25;69.41;100977.22;5073757;28;20191;-74
2022/01/26 09:39:20;;;;;;;35.30;15.17;;;;;;;2.26;69.53;100986.69;5073793;28;20202;-75
2022/01/26 09:41:48;;;;;;;22.47;10.70;;;;;;;2.22;69.29;100977.03;5073645;28;20198;-73
2022/01/26 09:44:15;;;;;;;27.33;12.47;;;;;;;2.58;74.14;100972.41;5073410;28;20191;-74
2022/01/26 09:46:42;;;;;;;32.30;14.53;;;;;;;2.24;73.83;100942.22;5073294;28;20202;-74
2022/01/26 09:49:11;;;;;;;23.43;11.57;;;;;;;2.40;73.37;100978.19;5073266;28;20209;-73
2022/01/26 09:51:42;;;;;;;52.03;27.10;;;;;;;2.24;71.28;100975.47;5073486;28;20198;-74
2022/01/26 09:54:14;;;;;;;43.07;21.03;;;;;;;2.52;72.00;100972.06;5072985;28;20205;-73
2022/01/26 09:56:41;;;;;;;35.43;17.03;;;;;;;2.27;71.39;100968.00;5073234;28;20218;-76
2022/01/26 09:59:08;;;;;;;39.17;18.60;;;;;;;2.44;71.76;100969.91;5072839;28;20194;-75
2022/01/26 10:01:43;;;;;;;23.37;13.07;;;;;;;2.28;72.25;100946.72;5072307;28;20199;-73
2022/01/26 10:04:28;;;;;;;51.47;21.63;;;;;;;2.79;71.93;100963.47;5072750;28;20194;-73
2022/01/26 10:07:15;;;;;;;37.57;16.33;;;;;;;2.94;71.02;100969.50;5071732;28;20205;-75
2022/01/26 10:10:00;;;;;;;45.33;22.50;;;;;;;3.09;70.60;100961.84;5072847;28;20198;-74
2022/01/26 10:15:32;;;;;;;30.10;15.50;;;;;;;3.09;71.22;100957.59;5073253;28;20996;-75
2022/01/26 10:18:05;;;;;;;20.43;10.23;;;;;;;2.88;71.12;100948.66;5072518;28;20209;-74
2022/01/26 10:20:49;;;;;;;18.27;8.17;;;;;;;2.75;70.93;100941.03;5072791;28;20194;-76
2022/01/26 10:23:17;;;;;;;18.33;10.20;;;;;;;2.87;71.72;100952.00;5073469;28;20205;-76
2022/01/26 10:25:47;;;;;;;22.87;11.77;;;;;;;2.78;71.39;100943.78;5072787;28;20260;-73
2022/01/26 10:28:18;;;;;;;20.80;10.80;;;;;;;2.81;71.20;100931.16;5072676;28;20191;-74
2022/01/26 10:30:47;;;;;;;15.50;8.77;;;;;;;2.86;71.28;100950.22;5071851;28;20199;-74
2022/01/26 10:33:17;;;;;;;19.90;10.40;;;;;;;2.74;71.05;100932.50;5072396;28;20227;-74
2022/01/26 10:35:46;;;;;;;25.00;12.63;;;;;;;3.28;69.74;100957.84;5072309;28;20237;-75
2022/01/26 10:38:15;;;;;;;27.13;13.30;;;;;;;3.46;69.51;100956.34;5072550;28;20256;-74
2022/01/26 10:40:42;;;;;;;160.23;40.37;;;;;;;3.00;67.97;100934.00;5072555;28;20278;-76
2022/01/26 10:43:11;;;;;;;90.03;25.33;;;;;;;3.11;68.17;100950.88;5071904;28;20585;-76
2022/01/26 10:45:50;;;;;;;107.03;34.40;;;;;;;3.05;69.68;100957.31;5072441;28;20198;-74
2022/01/26 10:48:24;;;;;;;122.20;32.73;;;;;;;3.16;69.20;100953.72;5072146;28;20381;-76
2022/01/26 10:53:41;;;;;;;121.13;37.33;;;;;;;3.04;69.63;100948.75;5064666;28;20256;-72
2022/01/26 10:56:08;;;;;;;76.27;26.50;;;;;;;3.14;67.91;100953.63;5071975;28;20312;-73
2022/01/26 10:58:35;;;;;;;75.90;28.77;;;;;;;3.10;67.42;100936.31;5072331;28;20199;-74
2022/01/26 11:01:02;;;;;;;52.93;23.83;;;;;;;2.92;68.94;100937.81;5071001;28;20213;-72
2022/01/26 11:03:29;;;;;;;31.20;14.60;;;;;;;3.01;69.17;100899.91;5071896;28;20195;-73
2022/01/26 11:05:57;;;;;;;52.37;21.93;;;;;;;3.42;69.15;100927.91;5072018;28;20217;-72
2022/01/26 11:08:26;;;;;;;28.10;12.93;;;;;;;3.49;68.70;100930.91;5072161;28;20202;-72
2022/01/26 11:10:53;;;;;;;31.83;15.17;;;;;;;3.28;68.68;100916.00;5071776;28;20661;-72
2022/01/26 11:13:28;;;;;;;30.73;14.23;;;;;;;3.54;69.03;100922.56;5072021;28;20195;-72
2022/01/26 11:16:07;;;;;;;34.87;14.40;;;;;;;3.56;67.37;100924.44;5071608;28;20225;-72
2022/01/26 11:18:45;;;;;;;35.47;15.13;;;;;;;3.68;67.50;100924.22;5071901;28;20233;-72
2022/01/26 11:21:33;;;;;;;31.90;14.23;;;;;;;3.41;72.23;100921.00;5072090;28;20256;-73
2022/01/26 11:24:08;;;;;;;28.70;12.37;;;;;;;3.59;79.24;100914.38;5071864;28;20276;-73
2022/01/26 11:26:38;;;;;;;41.03;15.83;;;;;;;3.46;79.61;100923.03;5072401;28;20194;-73
2022/01/26 11:29:14;;;;;;;35.67;14.23;;;;;;;3.36;76.35;100918.19;5072473;28;20202;-74
2022/01/26 11:31:41;;;;;;;24.63;9.33;;;;;;;3.31;80.24;100918.72;5071035;28;20205;-73
2022/01/26 11:34:09;;;;;;;29.17;12.07;;;;;;;3.16;76.94;100900.81;5071239;28;20219;-73
2022/01/26 11:36:40;;;;;;;62.83;23.07;;;;;;;3.47;77.89;100918.78;5071709;28;20257;-73
2022/01/26 11:42:15;;;;;;;54.80;19.90;;;;;;;3.55;75.42;100902.16;5071448;28;20202;-73
2022/01/26 11:42:22;;;;;;;30.07;13.50;;;;;;;3.31;72.13;100899.13;5071576;28;20292;-73
2022/01/26 11:45:07;;;;;;;36.80;15.63;;;;;;;3.46;70.48;100896.53;5071359;28;20290;-74
2022/01/26 11:47:34;;;;;;;23.20;7.37;;;;;;;3.43;69.29;100897.22;5071438;28;20595;-72
2022/01/26 11:50:08;;;;;;;21.87;9.13;;;;;;;3.58;68.43;100896.31;5071570;28;20198;-76
2022/01/26 11:52:38;;;;;;;20.63;10.07;;;;;;;3.57;68.83;100903.13;5071891;28;20221;-75
2022/01/26 11:55:22;;;;;;;29.57;15.13;;;;;;;3.67;69.63;100897.72;5071819;28;20198;-76
2022/01/26 11:57:51;;;;;;;36.23;13.80;;;;;;;3.75;70.08;100895.56;5075841;28;20221;-75
2022/01/26 12:00:36;;;;;;;22.57;11.63;;;;;;;3.82;68.43;100893.41;5074865;28;20226;-75
2022/01/26 12:03:08;;;;;;;20.37;9.43;;;;;;;3.81;69.63;100883.97;5075271;28;20198;-74
2022/01/26 12:05:44;;;;;;;25.77;13.67;;;;;;;3.78;68.25;100888.06;5075351;28;20739;-74
2022/01/26 12:08:13;;;;;;;58.10;22.50;;;;;;;3.66;67.99;100890.81;5075273;28;20201;-74
2022/01/26 12:10:40;;;;;;;30.07;14.50;;;;;;;3.78;66.48;100893.19;5075258;28;20199;-75
2022/01/26 12:13:09;;;;;;;17.63;9.47;;;;;;;3.60;66.07;100889.59;5075389;28;20191;-75
2022/01/26 12:15:41;;;;;;;31.67;14.77;;;;;;;3.38;66.32;100838.84;5075250;28;20254;-75
2022/01/26 12:18:20;;;;;;;36.33;17.67;;;;;;;3.50;66.51;100873.69;5075091;28;20629;-76
2022/01/26 12:35:29;;;;;;;11.23;6.80;;;;;;;4.04;63.73;100869.81;5067528;28;20264;-76
2022/01/26 12:38:02;;;;;;;18.23;11.10;;;;;;;3.91;62.47;100869.97;5075048;28;20266;-75
2022/01/26 12:43:36;;;;;;;21.53;9.80;;;;;;;4.23;62.41;100870.00;5032941;28;20284;-75
2022/01/26 12:46:05;;;;;;;16.80;8.67;;;;;;;4.37;62.17;100866.47;5032527;28;20196;-75
2022/01/26 12:48:34;;;;;;;20.53;9.17;;;;;;;4.32;61.62;100864.44;5052435;28;20195;-76